sensor_id;sensor_type;location;lat;lon;timestamp;temperature;humidity
13665;DHT22;6905;50.770;6.730;2024-02-23T00:16:19;5.40;99.90
13665;DHT22;6905;50.770;6.730;2024-02-23T00:19:08;5.40;99.90
13665;DHT22;6905;50.770;6.730;2024-02-23T00:21:53;5.40;99.90
13665;DHT22;6905;50.770;6.730;2024-02-23T00:24:43;5.50;99.90
13665;DHT22;6905;50.770;6.730;2024-02-23T00:30:21;5.50;99.90
13665;DHT22;6905;50.770;6.730;2024-02-23T00:38:47;5.50;99.90
13665;DHT22;6905;50.770;6.730;2024-02-23T00:41:23;5.40;99.90
13665;DHT22;6905;50.770;6.730;2024-02-23T00:44:01;5.40;99.90
13665;DHT22;6905;50.770;6.730;2024-02-23T00:46:53;5.40;99.90
13665;DHT22;6905;50.770;6.730;2024-02-23T00:49:32;5.40;99.90
13665;DHT22;6905;50.770;6.730;2024-02-23T00:52:24;5.40;99.90
13665;DHT22;6905;50.770;6.730;2024-02-23T00:55:07;5.40;99.90
13665;DHT22;6905;50.770;6.730;2024-02-23T00:57:53;5.30;99.90
13665;DHT22;6905;50.770;6.730;2024-02-23T01:00:30;5.30;99.90
13665;DHT22;6905;50.770;6.730;2024-02-23T01:03:11;5.30;99.90
13665;DHT22;6905;50.770;6.730;2024-02-23T01:05:52;5.30;99.90
13665;DHT22;6905;50.770;6.730;2024-02-23T01:08:22;5.30;99.90
13665;DHT22;6905;50.770;6.730;2024-02-23T01:10:51;5.20;99.90
13665;DHT22;6905;50.770;6.730;2024-02-23T01:13:24;5.30;99.90
13665;DHT22;6905;50.770;6.730;2024-02-23T01:19:08;5.30;99.90
13665;DHT22;6905;50.770;6.730;2024-02-23T01:21:56;5.30;99.90
13665;DHT22;6905;50.770;6.730;2024-02-23T01:24:53;5.30;99.90
13665;DHT22;6905;50.770;6.730;2024-02-23T02:01:14;5.10;99.90
13665;DHT22;6905;50.770;6.730;2024-02-23T02:04:13;5.10;99.90
13665;DHT22;6905;50.770;6.730;2024-02-23T02:07:10;5.10;99.90
13665;DHT22;6905;50.770;6.730;2024-02-23T02:09:58;5.10;99.90
13665;DHT22;6905;50.770;6.730;2024-02-23T02:12:46;5.10;99.90
13665;DHT22;6905;50.770;6.730;2024-02-23T02:24:34;5.10;99.90
13665;DHT22;6905;50.770;6.730;2024-02-23T02:27:30;5.20;99.90
13665;DHT22;6905;50.770;6.730;2024-02-23T02:30:15;5.10;99.90
13665;DHT22;6905;50.770;6.730;2024-02-23T02:36:17;5.10;99.90
13665;DHT22;6905;50.770;6.730;2024-02-23T02:39:10;5.10;99.90
13665;DHT22;6905;50.770;6.730;2024-02-23T02:41:59;5.10;99.90
13665;DHT22;6905;50.770;6.730;2024-02-23T02:44:47;5.10;99.90
13665;DHT22;6905;50.770;6.730;2024-02-23T02:47:31;5.10;99.90
13665;DHT22;6905;50.770;6.730;2024-02-23T02:50:24;5.00;99.90
13665;DHT22;6905;50.770;6.730;2024-02-23T02:53:18;5.00;99.90
13665;DHT22;6905;50.770;6.730;2024-02-23T02:56:05;5.00;99.90
13665;DHT22;6905;50.770;6.730;2024-02-23T03:19:45;5.00;99.90
13665;DHT22;6905;50.770;6.730;2024-02-23T03:25:36;5.00;99.90
13665;DHT22;6905;50.770;6.730;2024-02-23T03:28:44;5.00;99.90
13665;DHT22;6905;50.770;6.730;2024-02-23T03:31:38;5.00;99.90
13665;DHT22;6905;50.770;6.730;2024-02-23T03:35:26;5.00;99.90
13665;DHT22;6905;50.770;6.730;2024-02-23T03:43:42;5.00;99.90
13665;DHT22;6905;50.770;6.730;2024-02-23T03:46:50;5.00;99.90
13665;DHT22;6905;50.770;6.730;2024-02-23T03:49:39;5.00;99.90
13665;DHT22;6905;50.770;6.730;2024-02-23T03:52:27;5.00;99.90
13665;DHT22;6905;50.770;6.730;2024-02-23T03:55:36;5.00;99.90
13665;DHT22;6905;50.770;6.730;2024-02-23T04:25:34;5.00;99.90
13665;DHT22;6905;50.770;6.730;2024-02-23T04:28:27;5.00;99.90
13665;DHT22;6905;50.770;6.730;2024-02-23T04:31:14;5.00;99.90
13665;DHT22;6905;50.770;6.730;2024-02-23T04:34:14;5.00;99.90
13665;DHT22;6905;50.770;6.730;2024-02-23T04:36:56;5.00;99.90
13665;DHT22;6905;50.770;6.730;2024-02-23T04:39:43;5.00;99.90
13665;DHT22;6905;50.770;6.730;2024-02-23T04:42:38;5.00;99.90
13665;DHT22;6905;50.770;6.730;2024-02-23T04:45:32;5.00;99.90
13665;DHT22;6905;50.770;6.730;2024-02-23T04:48:45;4.90;99.90
13665;DHT22;6905;50.770;6.730;2024-02-23T04:51:49;4.90;99.90
13665;DHT22;6905;50.770;6.730;2024-02-23T04:54:44;5.00;99.90
13665;DHT22;6905;50.770;6.730;2024-02-23T05:06:47;4.90;99.90
13665;DHT22;6905;50.770;6.730;2024-02-23T05:09:38;4.90;99.90
13665;DHT22;6905;50.770;6.730;2024-02-23T05:12:53;4.90;99.90
13665;DHT22;6905;50.770;6.730;2024-02-23T05:15:36;4.80;99.90
13665;DHT22;6905;50.770;6.730;2024-02-23T05:21:22;4.70;99.90
13665;DHT22;6905;50.770;6.730;2024-02-23T05:30:07;4.60;99.90
13665;DHT22;6905;50.770;6.730;2024-02-23T05:33:37;4.60;99.90
13665;DHT22;6905;50.770;6.730;2024-02-23T05:36:52;4.50;99.90
13665;DHT22;6905;50.770;6.730;2024-02-23T05:39:52;4.50;99.90
13665;DHT22;6905;50.770;6.730;2024-02-23T05:42:50;4.50;99.90
13665;DHT22;6905;50.770;6.730;2024-02-23T05:51:53;4.60;99.90
13665;DHT22;6905;50.770;6.730;2024-02-23T05:54:35;4.60;99.90
13665;DHT22;6905;50.770;6.730;2024-02-23T05:57:17;4.60;99.90
13665;DHT22;6905;50.770;6.730;2024-02-23T06:03:10;4.60;99.90
13665;DHT22;6905;50.770;6.730;2024-02-23T06:06:02;4.60;99.90
13665;DHT22;6905;50.770;6.730;2024-02-23T06:27:24;4.80;99.90
13665;DHT22;6905;50.770;6.730;2024-02-23T06:30:13;4.90;99.90
13665;DHT22;6905;50.770;6.730;2024-02-23T06:33:00;4.90;99.90
13665;DHT22;6905;50.770;6.730;2024-02-23T06:39:13;4.90;99.90
13665;DHT22;6905;50.770;6.730;2024-02-23T06:45:01;4.90;99.90
13665;DHT22;6905;50.770;6.730;2024-02-23T06:47:56;4.90;99.90
13665;DHT22;6905;50.770;6.730;2024-02-23T06:50:42;4.90;99.90
13665;DHT22;6905;50.770;6.730;2024-02-23T06:56:16;4.90;99.90
13665;DHT22;6905;50.770;6.730;2024-02-23T06:59:00;4.90;99.90
13665;DHT22;6905;50.770;6.730;2024-02-23T07:13:25;5.00;99.90
13665;DHT22;6905;50.770;6.730;2024-02-23T07:18:04;5.10;99.90
13665;DHT22;6905;50.770;6.730;2024-02-23T07:23:33;5.20;99.90
13665;DHT22;6905;50.770;6.730;2024-02-23T07:44:16;5.50;99.90
13665;DHT22;6905;50.770;6.730;2024-02-23T07:47:06;5.60;99.90
13665;DHT22;6905;50.770;6.730;2024-02-23T07:50:09;5.60;99.90
13665;DHT22;6905;50.770;6.730;2024-02-23T08:14:50;6.20;99.90
13665;DHT22;6905;50.770;6.730;2024-02-23T08:20:43;6.20;99.90
13665;DHT22;6905;50.770;6.730;2024-02-23T08:23:48;6.20;99.90
13665;DHT22;6905;50.770;6.730;2024-02-23T08:29:32;6.30;99.90
13665;DHT22;6905;50.770;6.730;2024-02-23T08:41:38;6.50;99.90
13665;DHT22;6905;50.770;6.730;2024-02-23T08:47:27;6.50;99.90
13665;DHT22;6905;50.770;6.730;2024-02-23T08:50:00;6.60;99.90
13665;DHT22;6905;50.770;6.730;2024-02-23T08:52:28;6.60;99.90
13665;DHT22;6905;50.770;6.730;2024-02-23T08:55:11;6.70;99.90
13665;DHT22;6905;50.770;6.730;2024-02-23T08:57:51;6.70;99.90
13665;DHT22;6905;50.770;6.730;2024-02-23T09:00:25;6.70;99.90
13665;DHT22;6905;50.770;6.730;2024-02-23T09:05:53;6.80;99.90
13665;DHT22;6905;50.770;6.730;2024-02-23T09:08:36;7.00;99.90
13665;DHT22;6905;50.770;6.730;2024-02-23T09:11:22;7.10;99.90
13665;DHT22;6905;50.770;6.730;2024-02-23T09:19:50;7.10;99.90
13665;DHT22;6905;50.770;6.730;2024-02-23T09:22:21;7.30;99.90
13665;DHT22;6905;50.770;6.730;2024-02-23T09:24:51;7.30;99.90
13665;DHT22;6905;50.770;6.730;2024-02-23T09:27:35;7.50;99.90
13665;DHT22;6905;50.770;6.730;2024-02-23T09:30:17;7.60;99.90
13665;DHT22;6905;50.770;6.730;2024-02-23T09:32:55;7.80;99.90
13665;DHT22;6905;50.770;6.730;2024-02-23T09:38:34;8.00;99.90
13665;DHT22;6905;50.770;6.730;2024-02-23T09:41:03;8.10;99.90
13665;DHT22;6905;50.770;6.730;2024-02-23T09:43:44;8.20;99.90
13665;DHT22;6905;50.770;6.730;2024-02-23T09:46:15;8.30;99.90
13665;DHT22;6905;50.770;6.730;2024-02-23T09:48:55;8.40;99.90
13665;DHT22;6905;50.770;6.730;2024-02-23T09:51:25;8.50;99.90
13665;DHT22;6905;50.770;6.730;2024-02-23T09:54:09;8.50;99.90
13665;DHT22;6905;50.770;6.730;2024-02-23T09:56:40;8.60;99.90
13665;DHT22;6905;50.770;6.730;2024-02-23T09:59:16;8.70;99.90
13665;DHT22;6905;50.770;6.730;2024-02-23T10:01:53;8.80;99.90
13665;DHT22;6905;50.770;6.730;2024-02-23T10:04:35;8.80;99.90
13665;DHT22;6905;50.770;6.730;2024-02-23T11:42:06;10.50;99.90
13665;DHT22;6905;50.770;6.730;2024-02-23T11:44:35;10.50;99.90
13665;DHT22;6905;50.770;6.730;2024-02-23T11:47:09;10.60;99.90
13665;DHT22;6905;50.770;6.730;2024-02-23T11:49:42;10.50;99.90
13665;DHT22;6905;50.770;6.730;2024-02-23T11:52:11;10.30;99.90
13665;DHT22;6905;50.770;6.730;2024-02-23T11:54:42;10.40;99.90
13665;DHT22;6905;50.770;6.730;2024-02-23T11:57:14;10.40;99.90
13665;DHT22;6905;50.770;6.730;2024-02-23T11:59:41;10.30;99.90
13665;DHT22;6905;50.770;6.730;2024-02-23T12:02:31;10.20;99.90
13665;DHT22;6905;50.770;6.730;2024-02-23T12:04:58;10.00;99.90
13665;DHT22;6905;50.770;6.730;2024-02-23T12:07:28;9.90;99.90
13665;DHT22;6905;50.770;6.730;2024-02-23T12:10:10;9.90;99.90
13665;DHT22;6905;50.770;6.730;2024-02-23T12:12:54;9.80;99.90
13665;DHT22;6905;50.770;6.730;2024-02-23T12:18:10;9.80;99.90
13665;DHT22;6905;50.770;6.730;2024-02-23T12:20:50;9.70;99.90
13665;DHT22;6905;50.770;6.730;2024-02-23T12:23:21;9.70;99.90
13665;DHT22;6905;50.770;6.730;2024-02-23T12:26:17;9.60;99.90
13665;DHT22;6905;50.770;6.730;2024-02-23T12:28:47;9.70;99.90
13665;DHT22;6905;50.770;6.730;2024-02-23T12:31:28;9.60;99.90
13665;DHT22;6905;50.770;6.730;2024-02-23T12:34:16;9.60;99.90
13665;DHT22;6905;50.770;6.730;2024-02-23T12:37:14;9.50;99.90
13665;DHT22;6905;50.770;6.730;2024-02-23T12:39:56;9.50;99.90
13665;DHT22;6905;50.770;6.730;2024-02-23T12:42:42;9.50;99.90
13665;DHT22;6905;50.770;6.730;2024-02-23T12:51:04;9.40;99.90
13665;DHT22;6905;50.770;6.730;2024-02-23T12:53:35;9.40;99.90
13665;DHT22;6905;50.770;6.730;2024-02-23T12:56:04;9.30;99.90
13665;DHT22;6905;50.770;6.730;2024-02-23T12:58:42;9.30;99.90
13665;DHT22;6905;50.770;6.730;2024-02-23T13:01:10;9.30;99.90
13665;DHT22;6905;50.770;6.730;2024-02-23T13:03:40;9.30;99.90
13665;DHT22;6905;50.770;6.730;2024-02-23T13:09:08;9.50;99.90
13665;DHT22;6905;50.770;6.730;2024-02-23T13:11:51;9.70;99.90
13665;DHT22;6905;50.770;6.730;2024-02-23T13:14:40;10.00;99.90
13665;DHT22;6905;50.770;6.730;2024-02-23T13:17:25;10.30;99.90
13665;DHT22;6905;50.770;6.730;2024-02-23T13:22:49;10.70;99.90
13665;DHT22;6905;50.770;6.730;2024-02-23T13:25:39;10.80;99.90
13665;DHT22;6905;50.770;6.730;2024-02-23T13:28:08;11.10;99.90
13665;DHT22;6905;50.770;6.730;2024-02-23T13:30:50;11.20;99.90
13665;DHT22;6905;50.770;6.730;2024-02-23T13:33:33;11.50;99.90
13665;DHT22;6905;50.770;6.730;2024-02-23T13:36:17;11.70;99.90
13665;DHT22;6905;50.770;6.730;2024-02-23T13:38:58;11.90;99.90
13665;DHT22;6905;50.770;6.730;2024-02-23T13:47:55;11.90;99.90
13665;DHT22;6905;50.770;6.730;2024-02-23T13:50:39;11.90;99.90
13665;DHT22;6905;50.770;6.730;2024-02-23T13:53:25;12.00;99.90
13665;DHT22;6905;50.770;6.730;2024-02-23T13:56:03;12.00;99.90
13665;DHT22;6905;50.770;6.730;2024-02-23T13:58:47;11.80;99.90
13665;DHT22;6905;50.770;6.730;2024-02-23T14:01:50;11.50;99.90
13665;DHT22;6905;50.770;6.730;2024-02-23T14:04:50;11.50;99.90
13665;DHT22;6905;50.770;6.730;2024-02-23T14:07:33;11.50;99.90
13665;DHT22;6905;50.770;6.730;2024-02-23T14:10:17;11.60;99.90
13665;DHT22;6905;50.770;6.730;2024-02-23T14:12:47;11.50;99.90
13665;DHT22;6905;50.770;6.730;2024-02-23T14:15:28;11.70;99.90
13665;DHT22;6905;50.770;6.730;2024-02-23T14:18:07;11.60;99.90
13665;DHT22;6905;50.770;6.730;2024-02-23T14:23:51;11.50;99.90
13665;DHT22;6905;50.770;6.730;2024-02-23T14:32:47;11.30;99.90
13665;DHT22;6905;50.770;6.730;2024-02-23T14:35:29;11.10;99.90
13665;DHT22;6905;50.770;6.730;2024-02-23T14:37:58;11.00;99.90
13665;DHT22;6905;50.770;6.730;2024-02-23T14:40:29;11.00;99.90
13665;DHT22;6905;50.770;6.730;2024-02-23T14:42:58;10.80;99.90
13665;DHT22;6905;50.770;6.730;2024-02-23T14:45:29;10.60;99.90
13665;DHT22;6905;50.770;6.730;2024-02-23T14:47:58;10.40;99.90
13665;DHT22;6905;50.770;6.730;2024-02-23T14:50:25;10.40;99.90
13665;DHT22;6905;50.770;6.730;2024-02-23T14:52:55;10.30;99.90
13665;DHT22;6905;50.770;6.730;2024-02-23T14:55:22;10.30;99.90
13665;DHT22;6905;50.770;6.730;2024-02-23T14:57:58;10.20;99.90
13665;DHT22;6905;50.770;6.730;2024-02-23T15:00:26;10.20;99.90
13665;DHT22;6905;50.770;6.730;2024-02-23T15:02:55;10.10;99.90
13665;DHT22;6905;50.770;6.730;2024-02-23T15:05:31;10.10;99.90
13665;DHT22;6905;50.770;6.730;2024-02-23T15:08:01;10.00;99.90
13665;DHT22;6905;50.770;6.730;2024-02-23T15:10:28;10.00;99.90
13665;DHT22;6905;50.770;6.730;2024-02-23T15:13:00;9.90;99.90
13665;DHT22;6905;50.770;6.730;2024-02-23T15:15:27;10.00;99.90
13665;DHT22;6905;50.770;6.730;2024-02-23T15:17:57;10.30;99.90
13665;DHT22;6905;50.770;6.730;2024-02-23T15:20:24;10.60;99.90
13665;DHT22;6905;50.770;6.730;2024-02-23T15:22:57;10.70;99.90
13665;DHT22;6905;50.770;6.730;2024-02-23T15:25:30;10.90;99.90
13665;DHT22;6905;50.770;6.730;2024-02-23T15:28:10;10.90;99.90
13665;DHT22;6905;50.770;6.730;2024-02-23T15:30:37;11.00;99.90
13665;DHT22;6905;50.770;6.730;2024-02-23T15:33:07;10.90;99.90
13665;DHT22;6905;50.770;6.730;2024-02-23T15:35:34;10.90;99.90
13665;DHT22;6905;50.770;6.730;2024-02-23T15:40:37;10.70;99.90
13665;DHT22;6905;50.770;6.730;2024-02-23T15:46:01;10.40;99.90
13665;DHT22;6905;50.770;6.730;2024-02-23T15:48:37;10.20;99.90
13665;DHT22;6905;50.770;6.730;2024-02-23T15:51:28;10.20;99.90
13665;DHT22;6905;50.770;6.730;2024-02-23T15:54:09;10.10;99.90
13665;DHT22;6905;50.770;6.730;2024-02-23T15:56:39;10.10;99.90
13665;DHT22;6905;50.770;6.730;2024-02-23T15:59:13;10.00;99.90
13665;DHT22;6905;50.770;6.730;2024-02-23T16:04:31;10.00;99.90
13665;DHT22;6905;50.770;6.730;2024-02-23T16:07:06;9.90;99.90
13665;DHT22;6905;50.770;6.730;2024-02-23T16:09:34;9.70;99.90
13665;DHT22;6905;50.770;6.730;2024-02-23T16:12:07;9.70;99.90
13665;DHT22;6905;50.770;6.730;2024-02-23T16:14:55;9.70;99.90
13665;DHT22;6905;50.770;6.730;2024-02-23T16:18:35;9.60;99.90
13665;DHT22;6905;50.770;6.730;2024-02-23T16:21:10;9.50;99.90
13665;DHT22;6905;50.770;6.730;2024-02-23T16:23:47;9.40;99.90
13665;DHT22;6905;50.770;6.730;2024-02-23T16:26:18;9.30;99.90
13665;DHT22;6905;50.770;6.730;2024-02-23T16:29:05;9.30;99.90
13665;DHT22;6905;50.770;6.730;2024-02-23T16:31:45;9.20;99.90
13665;DHT22;6905;50.770;6.730;2024-02-23T16:34:19;9.20;99.90
13665;DHT22;6905;50.770;6.730;2024-02-23T16:37:01;9.10;99.90
13665;DHT22;6905;50.770;6.730;2024-02-23T16:42:40;9.00;99.90
13665;DHT22;6905;50.770;6.730;2024-02-23T16:45:07;8.90;99.90
13665;DHT22;6905;50.770;6.730;2024-02-23T16:47:34;8.70;99.90
13665;DHT22;6905;50.770;6.730;2024-02-23T16:50:03;8.70;99.90
13665;DHT22;6905;50.770;6.730;2024-02-23T16:52:33;8.60;99.90
13665;DHT22;6905;50.770;6.730;2024-02-23T16:55:06;8.50;99.90
13665;DHT22;6905;50.770;6.730;2024-02-23T16:57:42;8.50;99.90
13665;DHT22;6905;50.770;6.730;2024-02-23T17:00:16;8.40;99.90
13665;DHT22;6905;50.770;6.730;2024-02-23T17:02:50;8.40;99.90
13665;DHT22;6905;50.770;6.730;2024-02-23T17:11:24;8.20;99.90
13665;DHT22;6905;50.770;6.730;2024-02-23T17:14:10;8.20;99.90
13665;DHT22;6905;50.770;6.730;2024-02-23T17:17:02;8.10;99.90
13665;DHT22;6905;50.770;6.730;2024-02-23T17:19:37;8.10;99.90
13665;DHT22;6905;50.770;6.730;2024-02-23T17:22:10;8.00;99.90
13665;DHT22;6905;50.770;6.730;2024-02-23T17:24:37;8.00;99.90
13665;DHT22;6905;50.770;6.730;2024-02-23T17:27:09;7.90;99.90
13665;DHT22;6905;50.770;6.730;2024-02-23T17:29:43;7.90;99.90
13665;DHT22;6905;50.770;6.730;2024-02-23T17:32:13;7.80;99.90
13665;DHT22;6905;50.770;6.730;2024-02-23T17:34:41;7.80;99.90
13665;DHT22;6905;50.770;6.730;2024-02-23T17:37:17;7.70;99.90
13665;DHT22;6905;50.770;6.730;2024-02-23T17:40:13;7.70;99.90
13665;DHT22;6905;50.770;6.730;2024-02-23T17:42:45;7.60;99.90
13665;DHT22;6905;50.770;6.730;2024-02-23T17:45:14;7.50;99.90
13665;DHT22;6905;50.770;6.730;2024-02-23T17:47:54;7.50;99.90
13665;DHT22;6905;50.770;6.730;2024-02-23T17:50:34;7.40;99.90
13665;DHT22;6905;50.770;6.730;2024-02-23T17:53:20;7.40;99.90
13665;DHT22;6905;50.770;6.730;2024-02-23T17:55:57;7.30;99.90
13665;DHT22;6905;50.770;6.730;2024-02-23T17:58:35;7.20;99.90
13665;DHT22;6905;50.770;6.730;2024-02-23T18:01:17;7.20;99.90
13665;DHT22;6905;50.770;6.730;2024-02-23T18:03:46;7.10;99.90
13665;DHT22;6905;50.770;6.730;2024-02-23T18:06:13;7.10;99.90
13665;DHT22;6905;50.770;6.730;2024-02-23T18:08:44;7.10;99.90
13665;DHT22;6905;50.770;6.730;2024-02-23T18:11:23;7.00;99.90
13665;DHT22;6905;50.770;6.730;2024-02-23T18:14:03;7.00;99.90
13665;DHT22;6905;50.770;6.730;2024-02-23T18:16:31;7.00;99.90
13665;DHT22;6905;50.770;6.730;2024-02-23T18:19:08;6.90;99.90
13665;DHT22;6905;50.770;6.730;2024-02-23T18:21:36;6.90;99.90
13665;DHT22;6905;50.770;6.730;2024-02-23T18:24:04;6.90;99.90
13665;DHT22;6905;50.770;6.730;2024-02-23T18:26:38;6.90;99.90
13665;DHT22;6905;50.770;6.730;2024-02-23T18:29:07;6.90;99.90
13665;DHT22;6905;50.770;6.730;2024-02-23T18:31:34;6.90;99.90
13665;DHT22;6905;50.770;6.730;2024-02-23T18:34:08;6.90;99.90
13665;DHT22;6905;50.770;6.730;2024-02-23T18:36:36;6.90;99.90
13665;DHT22;6905;50.770;6.730;2024-02-23T18:39:24;6.90;99.90
13665;DHT22;6905;50.770;6.730;2024-02-23T19:45:25;6.40;99.90
13665;DHT22;6905;50.770;6.730;2024-02-23T19:48:01;6.40;99.90
13665;DHT22;6905;50.770;6.730;2024-02-23T19:50:49;6.30;99.90
13665;DHT22;6905;50.770;6.730;2024-02-23T19:53:46;6.30;99.90
13665;DHT22;6905;50.770;6.730;2024-02-23T19:56:41;6.30;99.90
13665;DHT22;6905;50.770;6.730;2024-02-23T19:59:20;6.20;99.90
13665;DHT22;6905;50.770;6.730;2024-02-23T20:05:04;6.20;99.90
13665;DHT22;6905;50.770;6.730;2024-02-23T20:07:59;6.10;99.90
13665;DHT22;6905;50.770;6.730;2024-02-23T20:10:44;6.10;99.90
13665;DHT22;6905;50.770;6.730;2024-02-23T20:13:15;6.10;99.90
13665;DHT22;6905;50.770;6.730;2024-02-23T20:16:01;6.00;99.90
13665;DHT22;6905;50.770;6.730;2024-02-23T20:19:00;6.00;99.90
13665;DHT22;6905;50.770;6.730;2024-02-23T20:22:16;6.00;99.90
13665;DHT22;6905;50.770;6.730;2024-02-23T20:34:02;5.80;99.90
13665;DHT22;6905;50.770;6.730;2024-02-23T20:39:54;5.80;99.90
13665;DHT22;6905;50.770;6.730;2024-02-23T20:42:35;5.80;99.90
13665;DHT22;6905;50.770;6.730;2024-02-23T20:45:22;5.70;99.90
13665;DHT22;6905;50.770;6.730;2024-02-23T20:48:09;5.70;99.90
13665;DHT22;6905;50.770;6.730;2024-02-23T20:51:00;5.70;99.90
13665;DHT22;6905;50.770;6.730;2024-02-23T20:56:56;5.60;99.90
13665;DHT22;6905;50.770;6.730;2024-02-23T20:59:26;5.60;99.90
13665;DHT22;6905;50.770;6.730;2024-02-23T21:01:57;5.60;99.90
13665;DHT22;6905;50.770;6.730;2024-02-23T21:04:36;5.50;99.90
13665;DHT22;6905;50.770;6.730;2024-02-23T21:07:07;5.50;99.90
13665;DHT22;6905;50.770;6.730;2024-02-23T21:09:40;5.50;99.90
13665;DHT22;6905;50.770;6.730;2024-02-23T21:12:34;5.40;99.90
13665;DHT22;6905;50.770;6.730;2024-02-23T21:15:03;5.40;99.90
13665;DHT22;6905;50.770;6.730;2024-02-23T21:17:31;5.40;99.90
13665;DHT22;6905;50.770;6.730;2024-02-23T21:20:03;5.40;99.90
13665;DHT22;6905;50.770;6.730;2024-02-23T21:22:32;5.40;99.90
13665;DHT22;6905;50.770;6.730;2024-02-23T21:25:06;5.30;99.90
13665;DHT22;6905;50.770;6.730;2024-02-23T21:27:46;5.30;99.90
13665;DHT22;6905;50.770;6.730;2024-02-23T21:30:18;5.30;99.90
13665;DHT22;6905;50.770;6.730;2024-02-23T21:32:46;5.30;99.90
13665;DHT22;6905;50.770;6.730;2024-02-23T21:35:32;5.30;99.90
13665;DHT22;6905;50.770;6.730;2024-02-23T21:41:07;5.20;99.90
13665;DHT22;6905;50.770;6.730;2024-02-23T21:43:40;5.20;99.90
13665;DHT22;6905;50.770;6.730;2024-02-23T21:46:11;5.10;99.90
13665;DHT22;6905;50.770;6.730;2024-02-23T21:48:39;5.10;99.90
13665;DHT22;6905;50.770;6.730;2024-02-23T21:51:06;5.10;99.90
13665;DHT22;6905;50.770;6.730;2024-02-23T21:53:41;5.10;99.90
13665;DHT22;6905;50.770;6.730;2024-02-23T21:56:09;5.00;99.90
13665;DHT22;6905;50.770;6.730;2024-02-23T21:58:44;5.00;99.90
13665;DHT22;6905;50.770;6.730;2024-02-23T22:01:13;5.10;99.90
13665;DHT22;6905;50.770;6.730;2024-02-23T23:58:03;5.10;99.90
